createdAt,value
2018-05-31T00:01:05.195Z,1015
2018-05-31T00:06:04.766Z,1015
2018-05-31T00:11:04.335Z,1015
2018-05-31T00:16:04.618Z,1015.1
2018-05-31T00:21:04.162Z,1015
2018-05-31T00:26:04.376Z,1015.1
2018-05-31T00:31:04.663Z,1015
2018-05-31T00:36:04.083Z,1015.1
2018-05-31T00:41:04.682Z,1015.2
2018-05-31T00:46:03.995Z,1015.1
2018-05-31T00:51:04.509Z,1015.1
2018-05-31T00:56:05.981Z,1015
2018-05-31T01:01:03.976Z,1015
2018-05-31T01:06:04.514Z,1015.1
2018-05-31T01:11:04.083Z,1015
2018-05-31T01:16:04.357Z,1015.1
2018-05-31T01:21:04.863Z,1015.2
2018-05-31T01:26:04.097Z,1015.2
2018-05-31T01:31:04.374Z,1015.1
2018-05-31T01:36:04.805Z,1015.1
2018-05-31T01:41:04.370Z,1015
2018-05-31T01:46:04.670Z,1015
2018-05-31T01:51:05.506Z,1015
2018-05-31T01:56:04.345Z,1015
2018-05-31T02:01:04.635Z,1015
2018-05-31T02:06:04.135Z,1015
2018-05-31T02:11:04.734Z,1015.1
2018-05-31T02:16:04.007Z,1015
2018-05-31T02:21:04.574Z,1015
2018-05-31T02:26:04.715Z,1015.1
2018-05-31T02:31:04.083Z,1015.1
2018-05-31T02:36:04.491Z,1015
2018-05-31T02:41:04.062Z,1014.9
2018-05-31T02:46:05.914Z,1014.9
2018-05-31T02:51:04.812Z,1014.9
2018-05-31T02:56:04.025Z,1014.9
2018-05-31T03:01:04.335Z,1014.9
2018-05-31T03:06:04.721Z,1014.9
2018-05-31T03:11:04.353Z,1015
2018-05-31T03:16:04.627Z,1014.9
2018-05-31T03:21:04.165Z,1014.9
2018-05-31T03:26:04.358Z,1014.9
2018-05-31T03:31:06.206Z,1014.9
2018-05-31T03:36:04.106Z,1015
2018-05-31T03:41:04.705Z,1015.2
2018-05-31T03:46:04.023Z,1015.2
2018-05-31T03:51:04.425Z,1015.3
2018-05-31T03:56:04.654Z,1015.2
2018-05-31T04:01:03.968Z,1015.2
2018-05-31T04:06:04.387Z,1015.3
2018-05-31T04:11:04.039Z,1015.3
2018-05-31T04:16:05.815Z,1015.3
2018-05-31T04:21:04.878Z,1015.3
2018-05-31T04:26:04.584Z,1015.3
2018-05-31T04:31:03.906Z,1015.5
2018-05-31T04:36:04.302Z,1015.5
2018-05-31T04:41:03.878Z,1015.5
2018-05-31T04:46:04.192Z,1015.7
2018-05-31T04:51:04.713Z,1015.8
2018-05-31T04:56:03.889Z,1015.7
2018-05-31T05:01:06.366Z,1015.7
2018-05-31T05:06:04.678Z,1015.8
2018-05-31T05:11:04.216Z,1015.7
2018-05-31T05:16:04.481Z,1015.7
2018-05-31T05:21:04.004Z,1015.7
2018-05-31T05:26:04.275Z,1015.8
2018-05-31T05:31:04.491Z,1015.7
2018-05-31T05:36:03.971Z,1015.7
2018-05-31T05:41:04.836Z,1015.7
2018-05-31T05:46:03.843Z,1015.7
2018-05-31T05:51:04.287Z,1015.6
2018-05-31T05:56:04.490Z,1015.6
2018-05-31T06:01:03.763Z,1015.6
2018-05-31T06:06:04.309Z,1015.6
2018-05-31T06:11:03.885Z,1015.8
2018-05-31T06:16:04.396Z,1015.9
2018-05-31T06:21:09.772Z,1015.8
2018-05-31T06:26:03.883Z,1015.9
2018-05-31T06:31:04.145Z,1015.8
2018-05-31T06:36:04.665Z,1015.9
2018-05-31T06:41:04.186Z,1015.9
2018-05-31T06:46:04.483Z,1016
2018-05-31T06:51:03.971Z,1016
2018-05-31T06:56:04.177Z,1016.2
2018-05-31T07:01:04.457Z,1016.3
2018-05-31T07:06:03.946Z,1016.2
2018-05-31T07:11:04.524Z,1016.2
2018-05-31T07:16:03.791Z,1016.1
2018-05-31T07:21:04.299Z,1016.1
2018-05-31T07:26:04.508Z,1016.1
2018-05-31T07:31:03.798Z,1016.1
2018-05-31T07:36:04.254Z,1016.1
2018-05-31T07:41:03.832Z,1016.1
2018-05-31T07:46:04.104Z,1016
2018-05-31T07:51:04.596Z,1016
2018-05-31T07:56:03.803Z,1016
2018-05-31T08:01:04.147Z,1016.1
2018-05-31T08:06:04.566Z,1016
2018-05-31T08:11:04.172Z,1015.9
2018-05-31T08:16:04.494Z,1016
2018-05-31T08:21:03.934Z,1016
2018-05-31T08:26:04.139Z,1016
2018-05-31T08:31:04.419Z,1016.1
2018-05-31T08:36:03.897Z,1016.1
2018-05-31T08:41:04.532Z,1016.1
2018-05-31T08:46:03.790Z,1016.1
2018-05-31T08:51:04.658Z,1016.1
2018-05-31T08:56:04.557Z,1016.1
2018-05-31T09:01:03.815Z,1016.1
2018-05-31T09:06:04.314Z,1016.1
2018-05-31T09:11:03.880Z,1016.1
2018-05-31T09:16:04.177Z,1016.2
2018-05-31T09:21:04.667Z,1016.1
2018-05-31T09:26:03.917Z,1016.1
2018-05-31T09:31:08.554Z,1016.1
2018-05-31T09:36:11.075Z,1016
2018-05-31T09:41:04.460Z,1016
2018-05-31T09:46:04.538Z,1016
2018-05-31T09:51:03.975Z,1016
2018-05-31T09:56:04.239Z,1015.9
2018-05-31T10:01:04.525Z,1015.9
2018-05-31T10:06:03.964Z,1015.8
2018-05-31T10:11:04.604Z,1015.8
2018-05-31T10:16:03.864Z,1015.8
2018-05-31T10:21:04.384Z,1015.8
2018-05-31T10:26:04.586Z,1015.7
2018-05-31T10:31:03.910Z,1015.7
2018-05-31T10:36:04.377Z,1015.7
2018-05-31T10:41:03.979Z,1015.5
2018-05-31T10:46:04.196Z,1015.5
2018-05-31T10:51:04.689Z,1015.5
2018-05-31T10:56:03.858Z,1015.5
2018-05-31T11:01:04.136Z,1015.4
2018-05-31T11:06:04.597Z,1015.3
2018-05-31T11:11:04.188Z,1015.2
2018-05-31T11:16:04.487Z,1015.2
2018-05-31T11:21:03.997Z,1015.2
2018-05-31T11:26:04.194Z,1015.2
2018-05-31T11:31:04.469Z,1015.1
2018-05-31T11:36:04.008Z,1015.2
2018-05-31T11:41:04.513Z,1015
2018-05-31T11:46:03.822Z,1015.1
2018-05-31T11:51:04.284Z,1015.1
2018-05-31T11:56:04.505Z,1015.2
2018-05-31T12:01:03.803Z,1015.3
2018-05-31T12:06:04.275Z,1015.3
2018-05-31T12:11:03.857Z,1015.1
2018-05-31T12:16:04.133Z,1015.1
2018-05-31T12:21:04.656Z,1015.1
2018-05-31T12:26:03.893Z,1015.1
2018-05-31T12:31:04.135Z,1015.1
2018-05-31T12:36:04.654Z,1015.2
2018-05-31T12:41:04.193Z,1015.2
2018-05-31T12:46:04.487Z,1015.1
2018-05-31T12:51:03.979Z,1015.1
2018-05-31T12:56:04.187Z,1015.2
2018-05-31T13:01:04.453Z,1015.2
2018-05-31T13:06:05.235Z,1015.3
2018-05-31T13:11:04.592Z,1015.2
2018-05-31T13:16:03.854Z,1015.2
2018-05-31T13:26:04.865Z,1015.3
2018-05-31T13:31:03.920Z,1015.3
2018-05-31T13:36:04.400Z,1015.3
2018-05-31T13:41:03.951Z,1015.3
2018-05-31T13:46:04.291Z,1015.3
2018-05-31T13:51:04.774Z,1015.3
2018-05-31T13:56:04.645Z,1015.3
2018-05-31T14:01:04.303Z,1015.3
2018-05-31T14:06:05.344Z,1015.3
2018-05-31T14:11:04.358Z,1015.3
2018-05-31T14:16:05.012Z,1015.3
2018-05-31T14:21:10.157Z,1015.3
2018-05-31T14:26:09.322Z,1015.3
2018-05-31T14:31:04.620Z,1015.3
2018-05-31T14:36:04.046Z,1015.3
2018-05-31T14:41:05.725Z,1015.3
2018-05-31T14:46:04.392Z,1015.3
2018-05-31T14:51:04.903Z,1015.3
2018-05-31T14:56:04.650Z,1015.3
2018-05-31T15:01:04.580Z,1015.3
2018-05-31T15:06:04.376Z,1015.3
2018-05-31T15:11:04.121Z,1015.3
2018-05-31T15:16:04.278Z,1015.3
2018-05-31T15:21:05.186Z,1015.3
2018-05-31T15:26:04.639Z,1015.3
2018-05-31T15:31:04.298Z,1015.3
2018-05-31T15:36:05.163Z,1015.3
2018-05-31T15:41:04.430Z,1015.3
2018-05-31T15:46:04.696Z,1015.3
2018-05-31T15:51:04.158Z,1015.3
2018-05-31T15:56:05.369Z,1015.3
2018-05-31T16:01:10.044Z,1015.3
2018-05-31T16:06:09.144Z,1015.3
2018-05-31T16:11:04.678Z,1015.3
2018-05-31T16:16:04.395Z,1015.3
2018-05-31T16:21:04.496Z,1015.3
2018-05-31T16:26:05.102Z,1015.3
2018-05-31T16:31:09.003Z,1015.3
2018-05-31T16:36:04.867Z,1015.3
2018-05-31T16:41:04.051Z,1015.3
2018-05-31T16:46:04.361Z,1015.3
2018-05-31T16:51:04.868Z,1015.3
2018-05-31T16:56:04.129Z,1015.3
2018-05-31T17:01:09.337Z,1015.3
2018-05-31T17:06:04.808Z,1015.3
2018-05-31T17:11:06.371Z,1015.3
2018-05-31T17:16:04.718Z,1015.3
2018-05-31T17:21:09.258Z,1015.3
2018-05-31T17:26:10.149Z,1015.3
2018-05-31T17:31:04.702Z,1015.3
2018-05-31T17:36:04.805Z,1015.3
2018-05-31T17:41:09.821Z,1015.3
2018-05-31T17:46:04.120Z,1015.3
2018-05-31T17:51:04.598Z,1015.3
2018-05-31T17:56:06.080Z,1015.3
2018-05-31T18:01:09.745Z,1015.3
2018-05-31T18:06:05.464Z,1015.3
2018-05-31T18:11:04.145Z,1015.3
2018-05-31T18:16:04.539Z,1015.3
2018-05-31T18:21:05.424Z,1015.3
2018-05-31T18:26:04.255Z,1015.3
2018-05-31T18:31:06.220Z,1015.3
2018-05-31T18:36:09.867Z,1015.3
2018-05-31T18:41:04.462Z,1015.3
2018-05-31T18:46:04.792Z,1015.3
2018-05-31T18:51:04.629Z,1015.3
2018-05-31T18:56:05.275Z,1015.3
2018-05-31T19:01:04.733Z,1015.3
2018-05-31T19:06:04.175Z,1015.3
2018-05-31T19:11:04.732Z,1015.3
2018-05-31T19:16:04.661Z,1015.3
2018-05-31T19:21:10.114Z,1015.3
2018-05-31T19:26:04.761Z,1015.3
2018-05-31T19:31:03.944Z,1015.3
2018-05-31T19:36:05.054Z,1015.3
2018-05-31T19:41:04.185Z,1015.3
2018-05-31T19:46:04.345Z,1015.3
2018-05-31T19:51:06.230Z,1015.3
2018-05-31T19:56:04.061Z,1015.3
2018-05-31T20:01:04.460Z,1015.3
2018-05-31T20:06:04.808Z,1015.3
2018-05-31T20:11:04.505Z,1015.3
2018-05-31T20:16:04.702Z,1015.3
2018-05-31T20:21:04.245Z,1015.3
2018-05-31T20:26:04.452Z,1015.3
2018-05-31T20:31:04.667Z,1015.3
2018-05-31T20:36:04.133Z,1015.3
2018-05-31T20:41:04.703Z,1015.3
2018-05-31T20:46:09.030Z,1015.3
2018-05-31T20:51:04.685Z,1015.3
2018-05-31T20:56:04.710Z,1015.3
2018-05-31T21:01:03.941Z,1015.3
2018-05-31T21:06:04.858Z,1015.3
2018-05-31T21:11:05.037Z,1015.3
2018-05-31T21:16:05.167Z,1015.3
2018-05-31T21:21:04.829Z,1015.3
2018-05-31T21:26:04.051Z,1015.3
2018-05-31T21:31:10.035Z,1015.3
2018-05-31T21:36:05.719Z,1015.3
2018-05-31T21:41:04.426Z,1015.3
2018-05-31T21:46:05.706Z,1015.3
2018-05-31T21:51:04.073Z,1015.3
2018-05-31T21:56:04.329Z,1015.3
2018-05-31T22:01:05.317Z,1015.3
2018-05-31T22:06:04.080Z,1015.3
2018-05-31T22:11:04.727Z,1015.3
2018-05-31T22:16:03.921Z,1015.3
2018-05-31T22:21:06.516Z,1015.3
2018-05-31T22:26:04.645Z,1015.3
2018-05-31T22:31:04.297Z,1015.3
2018-05-31T22:36:04.375Z,1015.3
2018-05-31T22:41:03.945Z,1015.3
2018-05-31T22:46:04.877Z,1015.3
2018-05-31T22:51:05.685Z,1015.3
2018-05-31T22:56:04.027Z,1015.3
2018-05-31T23:01:04.289Z,1015.3
2018-05-31T23:06:06.072Z,1015.3
2018-05-31T23:11:09.418Z,1015.3
2018-05-31T23:16:14.647Z,1015.3
2018-05-31T23:21:04.084Z,1015.3
2018-05-31T23:26:10.832Z,1015.3
2018-05-31T23:31:09.670Z,1015.3
2018-05-31T23:36:04.644Z,1015.3
2018-05-31T23:41:04.707Z,1015.3
2018-05-31T23:46:09.048Z,1015.3
2018-05-31T23:51:09.445Z,1015.3
2018-05-31T23:56:06.727Z,1015.3
